Portada
METAR-TAF:

METAR-TAF

Aeroports :

Plataforma petroliera

D15-fa-1, Països Baixos

latitud: 54-19-32N, longitud: 2-56-09E, altitud: 36 m

Observació

L'informe es va fer fa 39 minuts, a les 15:55 UTC
Vent 18 kt del Oest/Sud-Oest
Temperatura 9°C
Humitat 87%
Pressió 1007 hPa
Visibilitat 10 km o més

METAR: EHDV 071555Z AUTO 25018KT 9999 FEW014/// BKN034/// 09/07 Q1007 W///H///

Hora: 17:34 (16:34 UTC)


TAF: manca

Observacions i pronòstics meteorològics de més de 4000 aeroports (METAR i TAF).

Les estacions disponibles són els punts grocs i vermells al mapa.

Posi el ratolí al punt desitjat per veure el nom de l'estació.

Feu clic per veure les observacions i els pronòstics meteorològics.

Per canviar el mapa: feu clic els botons verds amb una creu de color negre per apropar; al botó verd amb un guió per allunyar la imatge; o en les fletxes verdes per a mapes adjacents.


METAR-TAF: